sensor_id;sensor_type;location;lat;lon;timestamp;temperature;humidity
32536;DHT22;18974;50.838;4.636;2023-12-04T00:00:40;3.40;99.90
32536;DHT22;18974;50.838;4.636;2023-12-04T00:03:06;3.40;99.90
32536;DHT22;18974;50.838;4.636;2023-12-04T00:05:32;3.40;99.90
32536;DHT22;18974;50.838;4.636;2023-12-04T00:07:58;3.30;99.90
32536;DHT22;18974;50.838;4.636;2023-12-04T00:10:23;3.40;99.90
32536;DHT22;18974;50.838;4.636;2023-12-04T00:12:49;3.30;99.90
32536;DHT22;18974;50.838;4.636;2023-12-04T00:15:15;3.30;99.90
32536;DHT22;18974;50.838;4.636;2023-12-04T00:17:41;3.30;99.90
32536;DHT22;18974;50.838;4.636;2023-12-04T00:20:08;3.40;99.90
32536;DHT22;18974;50.838;4.636;2023-12-04T00:22:37;3.30;99.90
32536;DHT22;18974;50.838;4.636;2023-12-04T00:25:04;3.30;99.90
32536;DHT22;18974;50.838;4.636;2023-12-04T00:27:30;3.20;99.90
32536;DHT22;18974;50.838;4.636;2023-12-04T00:29:56;3.40;99.90
32536;DHT22;18974;50.838;4.636;2023-12-04T00:32:22;3.40;99.90
32536;DHT22;18974;50.838;4.636;2023-12-04T00:34:48;3.30;99.90
32536;DHT22;18974;50.838;4.636;2023-12-04T00:37:13;3.30;99.90
32536;DHT22;18974;50.838;4.636;2023-12-04T00:39:39;3.20;99.90
32536;DHT22;18974;50.838;4.636;2023-12-04T00:42:05;3.20;99.90
32536;DHT22;18974;50.838;4.636;2023-12-04T00:44:31;3.20;99.90
32536;DHT22;18974;50.838;4.636;2023-12-04T00:46:56;3.30;99.90
32536;DHT22;18974;50.838;4.636;2023-12-04T00:49:23;3.20;99.90
32536;DHT22;18974;50.838;4.636;2023-12-04T00:51:49;3.20;99.90
32536;DHT22;18974;50.838;4.636;2023-12-04T00:54:15;3.30;99.90
32536;DHT22;18974;50.838;4.636;2023-12-04T00:56:41;3.30;99.90
32536;DHT22;18974;50.838;4.636;2023-12-04T00:59:10;3.30;99.90
32536;DHT22;18974;50.838;4.636;2023-12-04T01:01:36;3.30;99.90
32536;DHT22;18974;50.838;4.636;2023-12-04T01:04:02;3.40;99.90
32536;DHT22;18974;50.838;4.636;2023-12-04T01:06:28;3.30;99.90
32536;DHT22;18974;50.838;4.636;2023-12-04T01:08:55;3.30;99.90
32536;DHT22;18974;50.838;4.636;2023-12-04T01:11:21;3.30;99.90
32536;DHT22;18974;50.838;4.636;2023-12-04T01:13:47;3.30;99.90
32536;DHT22;18974;50.838;4.636;2023-12-04T01:16:13;3.30;99.90
32536;DHT22;18974;50.838;4.636;2023-12-04T01:18:40;3.30;99.90
32536;DHT22;18974;50.838;4.636;2023-12-04T01:21:07;3.20;99.90
32536;DHT22;18974;50.838;4.636;2023-12-04T01:23:34;3.20;99.90
32536;DHT22;18974;50.838;4.636;2023-12-04T01:26:01;3.10;99.90
32536;DHT22;18974;50.838;4.636;2023-12-04T01:28:26;3.20;99.90
32536;DHT22;18974;50.838;4.636;2023-12-04T01:30:52;3.30;99.90
32536;DHT22;18974;50.838;4.636;2023-12-04T01:33:18;3.30;99.90
32536;DHT22;18974;50.838;4.636;2023-12-04T01:35:43;3.40;99.90
32536;DHT22;18974;50.838;4.636;2023-12-04T01:38:09;3.40;99.90
32536;DHT22;18974;50.838;4.636;2023-12-04T01:40:35;3.50;99.90
32536;DHT22;18974;50.838;4.636;2023-12-04T01:43:01;3.40;99.90
32536;DHT22;18974;50.838;4.636;2023-12-04T01:45:27;3.40;99.90
32536;DHT22;18974;50.838;4.636;2023-12-04T01:47:53;3.30;99.90
32536;DHT22;18974;50.838;4.636;2023-12-04T01:50:20;3.30;99.90
32536;DHT22;18974;50.838;4.636;2023-12-04T01:52:46;3.20;99.90
32536;DHT22;18974;50.838;4.636;2023-12-04T01:55:12;3.30;99.90
32536;DHT22;18974;50.838;4.636;2023-12-04T01:57:40;3.40;99.90
32536;DHT22;18974;50.838;4.636;2023-12-04T02:00:06;3.40;99.90
32536;DHT22;18974;50.838;4.636;2023-12-04T02:02:40;3.40;99.90
32536;DHT22;18974;50.838;4.636;2023-12-04T02:05:08;3.50;99.90
32536;DHT22;18974;50.838;4.636;2023-12-04T02:07:34;3.50;99.90
32536;DHT22;18974;50.838;4.636;2023-12-04T02:10:02;3.60;99.90
32536;DHT22;18974;50.838;4.636;2023-12-04T02:12:29;3.60;99.90
32536;DHT22;18974;50.838;4.636;2023-12-04T02:14:55;3.60;99.90
32536;DHT22;18974;50.838;4.636;2023-12-04T02:17:21;3.60;99.90
32536;DHT22;18974;50.838;4.636;2023-12-04T02:19:47;3.70;99.90
32536;DHT22;18974;50.838;4.636;2023-12-04T02:22:13;3.70;99.90
32536;DHT22;18974;50.838;4.636;2023-12-04T02:24:39;3.60;99.90
32536;DHT22;18974;50.838;4.636;2023-12-04T02:27:12;3.70;99.90
32536;DHT22;18974;50.838;4.636;2023-12-04T02:29:44;3.70;99.90
32536;DHT22;18974;50.838;4.636;2023-12-04T02:32:15;3.70;99.90
32536;DHT22;18974;50.838;4.636;2023-12-04T02:34:44;3.60;99.90
32536;DHT22;18974;50.838;4.636;2023-12-04T02:37:11;3.50;99.90
32536;DHT22;18974;50.838;4.636;2023-12-04T02:39:38;3.60;99.90
32536;DHT22;18974;50.838;4.636;2023-12-04T02:42:04;3.60;99.90
32536;DHT22;18974;50.838;4.636;2023-12-04T02:44:30;3.60;99.90
32536;DHT22;18974;50.838;4.636;2023-12-04T02:46:56;3.50;99.90
32536;DHT22;18974;50.838;4.636;2023-12-04T02:49:21;3.60;99.90
32536;DHT22;18974;50.838;4.636;2023-12-04T02:51:47;3.60;99.90
32536;DHT22;18974;50.838;4.636;2023-12-04T02:54:13;3.50;99.90
32536;DHT22;18974;50.838;4.636;2023-12-04T02:56:38;3.50;99.90
32536;DHT22;18974;50.838;4.636;2023-12-04T02:59:04;3.50;99.90
32536;DHT22;18974;50.838;4.636;2023-12-04T03:01:30;3.60;99.90
32536;DHT22;18974;50.838;4.636;2023-12-04T03:03:55;3.60;99.90
32536;DHT22;18974;50.838;4.636;2023-12-04T03:06:21;3.70;99.90
32536;DHT22;18974;50.838;4.636;2023-12-04T03:08:47;3.70;99.90
32536;DHT22;18974;50.838;4.636;2023-12-04T03:11:12;3.80;99.90
32536;DHT22;18974;50.838;4.636;2023-12-04T03:13:38;3.80;99.90
32536;DHT22;18974;50.838;4.636;2023-12-04T03:16:04;3.80;99.90
32536;DHT22;18974;50.838;4.636;2023-12-04T03:18:30;3.80;99.90
32536;DHT22;18974;50.838;4.636;2023-12-04T03:20:55;3.90;99.90
32536;DHT22;18974;50.838;4.636;2023-12-04T03:23:21;3.80;99.90
32536;DHT22;18974;50.838;4.636;2023-12-04T03:25:47;3.80;99.90
32536;DHT22;18974;50.838;4.636;2023-12-04T03:28:12;3.90;99.90
32536;DHT22;18974;50.838;4.636;2023-12-04T03:30:41;3.90;99.90
32536;DHT22;18974;50.838;4.636;2023-12-04T03:33:09;3.90;99.90
32536;DHT22;18974;50.838;4.636;2023-12-04T03:35:35;3.90;99.90
32536;DHT22;18974;50.838;4.636;2023-12-04T03:38:00;3.80;99.90
32536;DHT22;18974;50.838;4.636;2023-12-04T03:40:26;3.90;99.90
32536;DHT22;18974;50.838;4.636;2023-12-04T03:42:51;3.80;99.90
32536;DHT22;18974;50.838;4.636;2023-12-04T03:45:17;3.80;99.90
32536;DHT22;18974;50.838;4.636;2023-12-04T03:47:43;3.80;99.90
32536;DHT22;18974;50.838;4.636;2023-12-04T03:50:09;3.80;99.90
32536;DHT22;18974;50.838;4.636;2023-12-04T03:52:34;3.80;99.90
32536;DHT22;18974;50.838;4.636;2023-12-04T03:55:00;3.80;99.90
32536;DHT22;18974;50.838;4.636;2023-12-04T03:57:26;3.80;99.90
32536;DHT22;18974;50.838;4.636;2023-12-04T03:59:51;3.70;99.90
32536;DHT22;18974;50.838;4.636;2023-12-04T04:02:17;3.80;99.90
32536;DHT22;18974;50.838;4.636;2023-12-04T04:04:43;3.80;99.90
32536;DHT22;18974;50.838;4.636;2023-12-04T04:07:09;4.00;99.90
32536;DHT22;18974;50.838;4.636;2023-12-04T04:09:34;4.00;99.90
32536;DHT22;18974;50.838;4.636;2023-12-04T04:12:00;4.00;99.90
32536;DHT22;18974;50.838;4.636;2023-12-04T04:14:26;4.00;99.90
32536;DHT22;18974;50.838;4.636;2023-12-04T04:16:51;3.90;99.90
32536;DHT22;18974;50.838;4.636;2023-12-04T04:19:17;3.90;99.90
32536;DHT22;18974;50.838;4.636;2023-12-04T04:21:43;4.00;99.90
32536;DHT22;18974;50.838;4.636;2023-12-04T04:24:08;4.00;99.90
32536;DHT22;18974;50.838;4.636;2023-12-04T04:26:34;4.00;99.90
32536;DHT22;18974;50.838;4.636;2023-12-04T04:28:59;3.90;99.90
32536;DHT22;18974;50.838;4.636;2023-12-04T04:31:25;3.90;99.90
32536;DHT22;18974;50.838;4.636;2023-12-04T04:33:51;3.80;99.90
32536;DHT22;18974;50.838;4.636;2023-12-04T04:36:16;3.90;99.90
32536;DHT22;18974;50.838;4.636;2023-12-04T04:38:42;3.90;99.90
32536;DHT22;18974;50.838;4.636;2023-12-04T04:41:15;3.90;99.90
32536;DHT22;18974;50.838;4.636;2023-12-04T04:43:42;3.80;99.90
32536;DHT22;18974;50.838;4.636;2023-12-04T04:46:08;3.90;99.90
32536;DHT22;18974;50.838;4.636;2023-12-04T04:48:33;4.00;99.90
32536;DHT22;18974;50.838;4.636;2023-12-04T04:50:59;4.00;99.90
32536;DHT22;18974;50.838;4.636;2023-12-04T04:53:24;4.10;99.90
32536;DHT22;18974;50.838;4.636;2023-12-04T04:55:50;4.10;99.90
32536;DHT22;18974;50.838;4.636;2023-12-04T04:58:16;4.00;99.90
32536;DHT22;18974;50.838;4.636;2023-12-04T05:00:43;4.10;99.90
32536;DHT22;18974;50.838;4.636;2023-12-04T05:03:09;4.10;99.90
32536;DHT22;18974;50.838;4.636;2023-12-04T05:05:35;4.10;99.90
32536;DHT22;18974;50.838;4.636;2023-12-04T05:08:00;4.20;99.90
32536;DHT22;18974;50.838;4.636;2023-12-04T05:10:26;4.30;99.90
32536;DHT22;18974;50.838;4.636;2023-12-04T05:12:52;4.20;99.90
32536;DHT22;18974;50.838;4.636;2023-12-04T05:15:17;4.20;99.90
32536;DHT22;18974;50.838;4.636;2023-12-04T05:17:43;4.10;99.90
32536;DHT22;18974;50.838;4.636;2023-12-04T05:20:09;4.20;99.90
32536;DHT22;18974;50.838;4.636;2023-12-04T05:22:35;4.10;99.90
32536;DHT22;18974;50.838;4.636;2023-12-04T05:25:01;4.20;99.90
32536;DHT22;18974;50.838;4.636;2023-12-04T05:27:27;4.30;99.90
32536;DHT22;18974;50.838;4.636;2023-12-04T05:29:52;4.30;99.90
32536;DHT22;18974;50.838;4.636;2023-12-04T05:32:18;4.20;99.90
32536;DHT22;18974;50.838;4.636;2023-12-04T05:34:44;4.20;99.90
32536;DHT22;18974;50.838;4.636;2023-12-04T05:37:09;4.20;99.90
32536;DHT22;18974;50.838;4.636;2023-12-04T05:39:35;4.20;99.90
32536;DHT22;18974;50.838;4.636;2023-12-04T05:42:00;4.20;99.90
32536;DHT22;18974;50.838;4.636;2023-12-04T05:44:26;4.10;99.90
32536;DHT22;18974;50.838;4.636;2023-12-04T05:46:52;4.20;99.90
32536;DHT22;18974;50.838;4.636;2023-12-04T05:49:17;4.10;99.90
32536;DHT22;18974;50.838;4.636;2023-12-04T05:51:43;4.10;99.90
32536;DHT22;18974;50.838;4.636;2023-12-04T05:54:09;4.20;99.90
32536;DHT22;18974;50.838;4.636;2023-12-04T05:56:34;4.20;99.90
32536;DHT22;18974;50.838;4.636;2023-12-04T05:59:00;4.10;99.90
32536;DHT22;18974;50.838;4.636;2023-12-04T06:01:26;4.20;99.90
32536;DHT22;18974;50.838;4.636;2023-12-04T06:03:51;4.30;99.90
32536;DHT22;18974;50.838;4.636;2023-12-04T06:06:17;4.40;99.90
32536;DHT22;18974;50.838;4.636;2023-12-04T06:08:43;4.40;99.90
32536;DHT22;18974;50.838;4.636;2023-12-04T06:11:08;4.50;99.90
32536;DHT22;18974;50.838;4.636;2023-12-04T06:13:34;4.50;99.90
32536;DHT22;18974;50.838;4.636;2023-12-04T06:16:00;4.40;99.90
32536;DHT22;18974;50.838;4.636;2023-12-04T06:18:25;4.50;99.90
32536;DHT22;18974;50.838;4.636;2023-12-04T06:20:51;4.50;99.90
32536;DHT22;18974;50.838;4.636;2023-12-04T06:23:17;4.50;99.90
32536;DHT22;18974;50.838;4.636;2023-12-04T06:25:43;4.50;99.90
32536;DHT22;18974;50.838;4.636;2023-12-04T06:28:09;4.50;99.90
32536;DHT22;18974;50.838;4.636;2023-12-04T06:30:35;4.40;99.90
32536;DHT22;18974;50.838;4.636;2023-12-04T06:33:01;4.30;99.90
32536;DHT22;18974;50.838;4.636;2023-12-04T06:35:27;4.30;99.90
32536;DHT22;18974;50.838;4.636;2023-12-04T06:37:54;4.20;99.90
32536;DHT22;18974;50.838;4.636;2023-12-04T06:40:21;4.20;99.90
32536;DHT22;18974;50.838;4.636;2023-12-04T06:42:47;4.20;99.90
32536;DHT22;18974;50.838;4.636;2023-12-04T06:45:13;4.20;99.90
32536;DHT22;18974;50.838;4.636;2023-12-04T06:47:40;4.20;99.90
32536;DHT22;18974;50.838;4.636;2023-12-04T06:50:08;4.20;99.90
32536;DHT22;18974;50.838;4.636;2023-12-04T06:52:34;4.30;99.90
32536;DHT22;18974;50.838;4.636;2023-12-04T06:54:59;4.20;99.90
32536;DHT22;18974;50.838;4.636;2023-12-04T06:57:25;4.20;99.90
32536;DHT22;18974;50.838;4.636;2023-12-04T06:59:51;4.20;99.90
32536;DHT22;18974;50.838;4.636;2023-12-04T07:02:16;4.20;99.90
32536;DHT22;18974;50.838;4.636;2023-12-04T07:04:42;4.20;99.90
32536;DHT22;18974;50.838;4.636;2023-12-04T07:07:08;4.30;99.90
32536;DHT22;18974;50.838;4.636;2023-12-04T07:09:34;4.30;99.90
32536;DHT22;18974;50.838;4.636;2023-12-04T07:12:00;4.20;99.90
32536;DHT22;18974;50.838;4.636;2023-12-04T07:14:26;4.30;99.90
32536;DHT22;18974;50.838;4.636;2023-12-04T07:16:52;4.30;99.90
32536;DHT22;18974;50.838;4.636;2023-12-04T07:19:18;4.40;99.90
32536;DHT22;18974;50.838;4.636;2023-12-04T07:21:44;4.40;99.90
32536;DHT22;18974;50.838;4.636;2023-12-04T07:24:09;4.30;99.90
32536;DHT22;18974;50.838;4.636;2023-12-04T07:26:35;4.30;99.90
32536;DHT22;18974;50.838;4.636;2023-12-04T07:29:01;4.40;99.90
32536;DHT22;18974;50.838;4.636;2023-12-04T07:31:27;4.40;99.90
32536;DHT22;18974;50.838;4.636;2023-12-04T07:33:54;4.60;99.90
32536;DHT22;18974;50.838;4.636;2023-12-04T07:36:20;4.50;99.90
32536;DHT22;18974;50.838;4.636;2023-12-04T07:38:45;4.50;99.90
32536;DHT22;18974;50.838;4.636;2023-12-04T07:41:11;4.50;99.90
32536;DHT22;18974;50.838;4.636;2023-12-04T07:43:37;4.50;99.90
32536;DHT22;18974;50.838;4.636;2023-12-04T07:46:03;4.50;99.90
32536;DHT22;18974;50.838;4.636;2023-12-04T07:48:30;4.60;99.90
32536;DHT22;18974;50.838;4.636;2023-12-04T07:50:56;4.60;99.90
32536;DHT22;18974;50.838;4.636;2023-12-04T07:53:21;4.60;99.90
32536;DHT22;18974;50.838;4.636;2023-12-04T07:55:48;4.60;99.90
32536;DHT22;18974;50.838;4.636;2023-12-04T07:58:18;4.60;99.90
32536;DHT22;18974;50.838;4.636;2023-12-04T08:00:44;4.50;99.90
32536;DHT22;18974;50.838;4.636;2023-12-04T08:03:10;4.50;99.90
32536;DHT22;18974;50.838;4.636;2023-12-04T08:05:36;4.60;99.90
32536;DHT22;18974;50.838;4.636;2023-12-04T08:08:02;4.50;99.90
32536;DHT22;18974;50.838;4.636;2023-12-04T08:10:27;4.50;99.90
32536;DHT22;18974;50.838;4.636;2023-12-04T08:12:53;4.50;99.90
32536;DHT22;18974;50.838;4.636;2023-12-04T08:15:19;4.50;99.90
32536;DHT22;18974;50.838;4.636;2023-12-04T08:17:44;4.50;99.90
32536;DHT22;18974;50.838;4.636;2023-12-04T08:20:11;4.40;99.90
32536;DHT22;18974;50.838;4.636;2023-12-04T08:22:40;4.50;99.90
32536;DHT22;18974;50.838;4.636;2023-12-04T08:25:07;4.50;99.90
32536;DHT22;18974;50.838;4.636;2023-12-04T08:27:33;4.50;99.90
32536;DHT22;18974;50.838;4.636;2023-12-04T08:29:59;4.60;99.90
32536;DHT22;18974;50.838;4.636;2023-12-04T08:32:25;4.60;99.90
32536;DHT22;18974;50.838;4.636;2023-12-04T08:34:53;4.60;99.90
32536;DHT22;18974;50.838;4.636;2023-12-04T08:37:19;4.60;99.90
32536;DHT22;18974;50.838;4.636;2023-12-04T08:39:45;4.50;99.90
32536;DHT22;18974;50.838;4.636;2023-12-04T08:42:11;4.60;99.90
32536;DHT22;18974;50.838;4.636;2023-12-04T08:44:37;4.60;99.90
32536;DHT22;18974;50.838;4.636;2023-12-04T08:47:04;4.70;99.90
32536;DHT22;18974;50.838;4.636;2023-12-04T08:49:29;4.70;99.90
32536;DHT22;18974;50.838;4.636;2023-12-04T08:51:55;4.70;99.90
32536;DHT22;18974;50.838;4.636;2023-12-04T08:54:24;4.60;99.90
32536;DHT22;18974;50.838;4.636;2023-12-04T08:56:49;4.70;99.90
32536;DHT22;18974;50.838;4.636;2023-12-04T08:59:15;4.70;99.90
32536;DHT22;18974;50.838;4.636;2023-12-04T09:01:42;4.80;99.90
32536;DHT22;18974;50.838;4.636;2023-12-04T09:04:09;4.80;99.90
32536;DHT22;18974;50.838;4.636;2023-12-04T09:06:35;4.80;99.90
32536;DHT22;18974;50.838;4.636;2023-12-04T09:09:01;4.70;99.90
32536;DHT22;18974;50.838;4.636;2023-12-04T09:11:28;4.70;99.90
32536;DHT22;18974;50.838;4.636;2023-12-04T09:13:54;4.70;99.90
32536;DHT22;18974;50.838;4.636;2023-12-04T09:16:20;4.70;99.90
32536;DHT22;18974;50.838;4.636;2023-12-04T09:18:46;4.80;99.90
32536;DHT22;18974;50.838;4.636;2023-12-04T09:21:12;4.80;99.90
32536;DHT22;18974;50.838;4.636;2023-12-04T09:23:37;4.80;99.90
32536;DHT22;18974;50.838;4.636;2023-12-04T09:26:04;4.70;99.90
32536;DHT22;18974;50.838;4.636;2023-12-04T09:28:29;4.80;99.90
32536;DHT22;18974;50.838;4.636;2023-12-04T09:30:55;4.80;99.90
32536;DHT22;18974;50.838;4.636;2023-12-04T09:33:21;4.80;99.90
32536;DHT22;18974;50.838;4.636;2023-12-04T09:35:46;4.90;99.90
32536;DHT22;18974;50.838;4.636;2023-12-04T09:38:12;4.90;99.90
32536;DHT22;18974;50.838;4.636;2023-12-04T09:40:38;4.90;99.90
32536;DHT22;18974;50.838;4.636;2023-12-04T09:43:05;5.00;99.90
32536;DHT22;18974;50.838;4.636;2023-12-04T09:45:32;5.00;99.90
32536;DHT22;18974;50.838;4.636;2023-12-04T09:48:01;5.00;99.90
32536;DHT22;18974;50.838;4.636;2023-12-04T09:50:27;4.90;99.90
32536;DHT22;18974;50.838;4.636;2023-12-04T09:52:52;4.90;99.90
32536;DHT22;18974;50.838;4.636;2023-12-04T09:55:18;4.80;99.90
32536;DHT22;18974;50.838;4.636;2023-12-04T09:57:45;4.70;99.90
32536;DHT22;18974;50.838;4.636;2023-12-04T10:00:14;4.70;99.90
32536;DHT22;18974;50.838;4.636;2023-12-04T10:02:41;4.70;99.90
32536;DHT22;18974;50.838;4.636;2023-12-04T10:05:10;4.70;99.90
32536;DHT22;18974;50.838;4.636;2023-12-04T10:07:36;4.70;99.90
32536;DHT22;18974;50.838;4.636;2023-12-04T10:10:03;4.80;99.90
32536;DHT22;18974;50.838;4.636;2023-12-04T10:12:32;4.70;99.90
32536;DHT22;18974;50.838;4.636;2023-12-04T10:15:07;4.70;99.90
32536;DHT22;18974;50.838;4.636;2023-12-04T10:17:37;4.70;99.90
32536;DHT22;18974;50.838;4.636;2023-12-04T10:20:21;4.60;99.90
32536;DHT22;18974;50.838;4.636;2023-12-04T10:22:54;4.60;99.90
32536;DHT22;18974;50.838;4.636;2023-12-04T10:25:25;4.70;99.90
32536;DHT22;18974;50.838;4.636;2023-12-04T10:27:53;4.70;99.90
32536;DHT22;18974;50.838;4.636;2023-12-04T10:30:29;4.70;99.90
32536;DHT22;18974;50.838;4.636;2023-12-04T10:32:57;4.70;99.90
32536;DHT22;18974;50.838;4.636;2023-12-04T10:35:30;4.80;99.90
32536;DHT22;18974;50.838;4.636;2023-12-04T10:37:59;4.90;99.90
32536;DHT22;18974;50.838;4.636;2023-12-04T10:40:29;5.00;99.90
32536;DHT22;18974;50.838;4.636;2023-12-04T10:45:36;5.10;99.90
32536;DHT22;18974;50.838;4.636;2023-12-04T10:48:02;5.00;99.90
32536;DHT22;18974;50.838;4.636;2023-12-04T10:50:33;4.90;99.90
32536;DHT22;18974;50.838;4.636;2023-12-04T10:53:03;5.00;99.90
32536;DHT22;18974;50.838;4.636;2023-12-04T10:55:32;4.90;99.90
32536;DHT22;18974;50.838;4.636;2023-12-04T10:57:59;5.00;99.90
32536;DHT22;18974;50.838;4.636;2023-12-04T11:00:28;5.10;99.90
32536;DHT22;18974;50.838;4.636;2023-12-04T11:02:56;5.00;99.90
32536;DHT22;18974;50.838;4.636;2023-12-04T11:05:23;5.10;99.90
32536;DHT22;18974;50.838;4.636;2023-12-04T11:07:57;5.10;99.90
32536;DHT22;18974;50.838;4.636;2023-12-04T11:10:26;5.10;99.90
32536;DHT22;18974;50.838;4.636;2023-12-04T11:13:15;5.10;99.90
32536;DHT22;18974;50.838;4.636;2023-12-04T11:15:44;5.00;99.90
32536;DHT22;18974;50.838;4.636;2023-12-04T11:18:14;4.90;99.90
32536;DHT22;18974;50.838;4.636;2023-12-04T11:21:07;5.00;99.90
32536;DHT22;18974;50.838;4.636;2023-12-04T11:23:34;5.10;99.90
32536;DHT22;18974;50.838;4.636;2023-12-04T11:26:01;5.30;99.90
32536;DHT22;18974;50.838;4.636;2023-12-04T11:28:28;5.20;99.90
32536;DHT22;18974;50.838;4.636;2023-12-04T11:30:55;5.20;99.90
32536;DHT22;18974;50.838;4.636;2023-12-04T11:33:21;5.20;99.90
32536;DHT22;18974;50.838;4.636;2023-12-04T11:35:46;5.20;99.90
32536;DHT22;18974;50.838;4.636;2023-12-04T11:38:17;5.10;99.90
32536;DHT22;18974;50.838;4.636;2023-12-04T11:40:43;5.10;99.90
32536;DHT22;18974;50.838;4.636;2023-12-04T11:43:24;5.10;99.90
32536;DHT22;18974;50.838;4.636;2023-12-04T11:45:50;5.10;99.90
32536;DHT22;18974;50.838;4.636;2023-12-04T11:48:16;5.10;99.90
32536;DHT22;18974;50.838;4.636;2023-12-04T11:50:47;5.10;99.90
32536;DHT22;18974;50.838;4.636;2023-12-04T11:53:13;5.10;99.90
32536;DHT22;18974;50.838;4.636;2023-12-04T11:55:40;5.00;99.90
32536;DHT22;18974;50.838;4.636;2023-12-04T11:58:10;5.10;99.90
32536;DHT22;18974;50.838;4.636;2023-12-04T12:00:37;5.20;99.90
32536;DHT22;18974;50.838;4.636;2023-12-04T12:03:07;5.10;99.90
32536;DHT22;18974;50.838;4.636;2023-12-04T12:05:35;5.10;99.90
32536;DHT22;18974;50.838;4.636;2023-12-04T12:08:04;5.20;99.90
32536;DHT22;18974;50.838;4.636;2023-12-04T12:10:31;5.30;99.90
32536;DHT22;18974;50.838;4.636;2023-12-04T12:12:57;5.30;99.90
32536;DHT22;18974;50.838;4.636;2023-12-04T12:15:23;5.40;99.90
32536;DHT22;18974;50.838;4.636;2023-12-04T12:17:49;5.30;99.90
32536;DHT22;18974;50.838;4.636;2023-12-04T12:20:18;5.40;99.90
32536;DHT22;18974;50.838;4.636;2023-12-04T12:22:44;5.40;99.90
32536;DHT22;18974;50.838;4.636;2023-12-04T12:25:11;5.50;99.90
32536;DHT22;18974;50.838;4.636;2023-12-04T12:27:38;5.50;99.90
32536;DHT22;18974;50.838;4.636;2023-12-04T12:30:04;5.60;99.90
32536;DHT22;18974;50.838;4.636;2023-12-04T12:32:34;5.70;99.90
32536;DHT22;18974;50.838;4.636;2023-12-04T12:35:00;5.70;99.90
32536;DHT22;18974;50.838;4.636;2023-12-04T12:37:28;5.80;99.90
32536;DHT22;18974;50.838;4.636;2023-12-04T12:39:54;5.80;99.90
32536;DHT22;18974;50.838;4.636;2023-12-04T12:42:24;5.80;99.90
32536;DHT22;18974;50.838;4.636;2023-12-04T12:44:51;5.90;99.90
32536;DHT22;18974;50.838;4.636;2023-12-04T12:47:17;5.80;99.90
32536;DHT22;18974;50.838;4.636;2023-12-04T12:49:46;5.90;99.90
32536;DHT22;18974;50.838;4.636;2023-12-04T12:52:12;5.90;99.90
32536;DHT22;18974;50.838;4.636;2023-12-04T12:54:42;5.90;99.90
32536;DHT22;18974;50.838;4.636;2023-12-04T12:57:08;5.80;99.90
32536;DHT22;18974;50.838;4.636;2023-12-04T12:59:38;5.80;99.90
32536;DHT22;18974;50.838;4.636;2023-12-04T13:02:05;5.80;99.90
32536;DHT22;18974;50.838;4.636;2023-12-04T13:04:42;5.80;99.90
32536;DHT22;18974;50.838;4.636;2023-12-04T13:07:08;5.80;99.90
32536;DHT22;18974;50.838;4.636;2023-12-04T13:09:34;5.80;99.90
32536;DHT22;18974;50.838;4.636;2023-12-04T13:12:04;5.70;99.90
32536;DHT22;18974;50.838;4.636;2023-12-04T13:14:34;5.80;99.90
32536;DHT22;18974;50.838;4.636;2023-12-04T13:17:03;5.90;99.90
32536;DHT22;18974;50.838;4.636;2023-12-04T13:19:29;5.90;99.90
32536;DHT22;18974;50.838;4.636;2023-12-04T13:21:57;6.00;99.90
32536;DHT22;18974;50.838;4.636;2023-12-04T13:24:23;5.90;99.90
32536;DHT22;18974;50.838;4.636;2023-12-04T13:26:48;5.90;99.90
32536;DHT22;18974;50.838;4.636;2023-12-04T13:29:17;5.80;99.90
32536;DHT22;18974;50.838;4.636;2023-12-04T13:31:44;5.80;99.90
32536;DHT22;18974;50.838;4.636;2023-12-04T13:34:12;5.80;99.90
32536;DHT22;18974;50.838;4.636;2023-12-04T13:36:37;5.90;99.90
32536;DHT22;18974;50.838;4.636;2023-12-04T13:39:03;5.90;99.90
32536;DHT22;18974;50.838;4.636;2023-12-04T13:41:44;5.90;99.90
32536;DHT22;18974;50.838;4.636;2023-12-04T13:44:32;5.90;99.90
32536;DHT22;18974;50.838;4.636;2023-12-04T13:46:58;5.90;99.90
32536;DHT22;18974;50.838;4.636;2023-12-04T13:49:24;5.90;99.90
32536;DHT22;18974;50.838;4.636;2023-12-04T13:51:50;5.90;99.90
32536;DHT22;18974;50.838;4.636;2023-12-04T13:54:16;5.80;99.90
32536;DHT22;18974;50.838;4.636;2023-12-04T13:56:47;5.80;99.90
32536;DHT22;18974;50.838;4.636;2023-12-04T13:59:20;5.90;99.90
32536;DHT22;18974;50.838;4.636;2023-12-04T14:01:48;5.80;99.90
32536;DHT22;18974;50.838;4.636;2023-12-04T14:04:15;5.90;99.90
32536;DHT22;18974;50.838;4.636;2023-12-04T14:06:41;6.00;99.90
32536;DHT22;18974;50.838;4.636;2023-12-04T14:09:07;6.00;99.90
32536;DHT22;18974;50.838;4.636;2023-12-04T14:11:39;5.90;99.90
32536;DHT22;18974;50.838;4.636;2023-12-04T14:14:04;6.00;99.90
32536;DHT22;18974;50.838;4.636;2023-12-04T14:16:33;5.90;99.90
32536;DHT22;18974;50.838;4.636;2023-12-04T14:18:59;5.90;99.90
32536;DHT22;18974;50.838;4.636;2023-12-04T14:21:24;5.90;99.90
32536;DHT22;18974;50.838;4.636;2023-12-04T14:23:50;5.90;99.90
32536;DHT22;18974;50.838;4.636;2023-12-04T14:26:16;5.80;99.90
32536;DHT22;18974;50.838;4.636;2023-12-04T14:28:41;5.90;99.90
32536;DHT22;18974;50.838;4.636;2023-12-04T14:31:07;5.90;99.90
32536;DHT22;18974;50.838;4.636;2023-12-04T14:33:33;5.90;99.90
32536;DHT22;18974;50.838;4.636;2023-12-04T14:35:59;5.90;99.90
32536;DHT22;18974;50.838;4.636;2023-12-04T14:38:24;5.90;99.90
32536;DHT22;18974;50.838;4.636;2023-12-04T14:40:50;6.00;99.90
32536;DHT22;18974;50.838;4.636;2023-12-04T14:43:16;5.90;99.90
32536;DHT22;18974;50.838;4.636;2023-12-04T14:45:42;5.90;99.90
32536;DHT22;18974;50.838;4.636;2023-12-04T14:48:08;5.90;99.90
32536;DHT22;18974;50.838;4.636;2023-12-04T14:50:33;6.00;99.90
32536;DHT22;18974;50.838;4.636;2023-12-04T14:53:01;5.90;99.90
32536;DHT22;18974;50.838;4.636;2023-12-04T14:55:47;6.00;99.90
32536;DHT22;18974;50.838;4.636;2023-12-04T14:58:33;6.00;99.90
32536;DHT22;18974;50.838;4.636;2023-12-04T15:00:59;6.00;99.90
32536;DHT22;18974;50.838;4.636;2023-12-04T15:03:44;6.00;99.90
32536;DHT22;18974;50.838;4.636;2023-12-04T15:06:29;6.10;99.90
32536;DHT22;18974;50.838;4.636;2023-12-04T15:09:26;6.00;99.90
32536;DHT22;18974;50.838;4.636;2023-12-04T15:11:52;6.00;99.90
32536;DHT22;18974;50.838;4.636;2023-12-04T15:14:36;6.10;99.90
32536;DHT22;18974;50.838;4.636;2023-12-04T15:17:13;6.10;99.90
32536;DHT22;18974;50.838;4.636;2023-12-04T15:19:45;6.20;99.90
32536;DHT22;18974;50.838;4.636;2023-12-04T15:22:29;6.20;99.90
32536;DHT22;18974;50.838;4.636;2023-12-04T15:24:56;6.20;99.90
32536;DHT22;18974;50.838;4.636;2023-12-04T15:27:24;6.20;99.90
32536;DHT22;18974;50.838;4.636;2023-12-04T15:29:49;6.20;99.90
32536;DHT22;18974;50.838;4.636;2023-12-04T15:32:15;6.10;99.90
32536;DHT22;18974;50.838;4.636;2023-12-04T15:34:41;6.20;99.90
32536;DHT22;18974;50.838;4.636;2023-12-04T15:37:06;6.20;99.90
32536;DHT22;18974;50.838;4.636;2023-12-04T15:39:32;6.20;99.90
32536;DHT22;18974;50.838;4.636;2023-12-04T15:41:58;6.10;99.90
32536;DHT22;18974;50.838;4.636;2023-12-04T15:44:23;6.10;99.90
32536;DHT22;18974;50.838;4.636;2023-12-04T15:46:49;6.10;99.90